Time;durP1;ratioP1;P1;durP2;ratioP2;P2;SDS_P1;SDS_P2;PMS_P1;PMS_P2;Temp;Humidity;BMP_temperature;BMP_pressure;BME280_temperature;BME280_humidity;BME280_pressure;Samples;Min_cycle;Max_cycle;Signal;HPM_P1;HPM_P2
2021/11/03 00:00:01;;;;;;;25.08;12.57;;;;;;;;;;5048802;28;20499;-66
2021/11/03 00:02:28;;;;;;;18.25;10.65;;;;;;;;;;5071426;28;20057;-66
2021/11/03 00:04:56;;;;;;;18.80;11.38;;;;;;;;;;5052966;28;20353;-66
2021/11/03 00:07:22;;;;;;;18.10;10.48;;;;;;;;;;5046815;28;20049;-66
2021/11/03 00:09:48;;;;;;;17.40;9.95;;;;;;;;;;5043907;28;20037;-66
2021/11/03 00:12:15;;;;;;;18.70;9.90;;;;;;;;;;5048543;28;20033;-66
2021/11/03 00:14:41;;;;;;;17.25;10.68;;;;;;;;;;5058161;28;20049;-66
2021/11/03 00:17:08;;;;;;;14.30;8.65;;;;;;;;;;5075132;28;20041;-66
2021/11/03 00:19:35;;;;;;;13.80;7.75;;;;;;;;;;5051629;28;20128;-66
2021/11/03 00:22:01;;;;;;;11.63;7.13;;;;;;;;;;5046830;28;20050;-66
2021/11/03 00:24:27;;;;;;;12.52;7.85;;;;;;;;;;5034526;28;20049;-66
2021/11/03 00:26:53;;;;;;;10.82;7.28;;;;;;;;;;5051729;28;20389;-66
2021/11/03 00:29:19;;;;;;;10.60;7.18;;;;;;;;;;5048891;28;20485;-66
2021/11/03 00:31:45;;;;;;;10.57;6.00;;;;;;;;;;5049542;28;20156;-65
2021/11/03 00:34:11;;;;;;;10.60;6.88;;;;;;;;;;5052528;28;20117;-66
2021/11/03 00:36:38;;;;;;;10.60;6.13;;;;;;;;;;5050474;28;20060;-66
2021/11/03 00:39:04;;;;;;;9.13;6.05;;;;;;;;;;5048751;28;20120;-66
2021/11/03 00:41:30;;;;;;;11.35;7.10;;;;;;;;;;5050326;28;20103;-66
2021/11/03 00:43:57;;;;;;;20.60;6.55;;;;;;;;;;5044729;28;20041;-66
2021/11/03 00:46:23;;;;;;;9.23;6.63;;;;;;;;;;5065235;28;21183;-66
2021/11/03 00:48:49;;;;;;;10.23;7.00;;;;;;;;;;5050787;28;20115;-66
2021/11/03 00:51:15;;;;;;;12.50;7.32;;;;;;;;;;5055632;28;20045;-66
2021/11/03 00:53:41;;;;;;;10.75;6.13;;;;;;;;;;5073000;28;20047;-66
2021/11/03 00:56:08;;;;;;;12.95;5.75;;;;;;;;;;5050579;28;20091;-66
2021/11/03 00:58:34;;;;;;;9.00;6.07;;;;;;;;;;5038440;28;20041;-66
2021/11/03 01:01:00;;;;;;;7.13;5.10;;;;;;;;;;5041866;28;20113;-66
2021/11/03 01:03:26;;;;;;;7.55;5.53;;;;;;;;;;5044669;28;20049;-66
2021/11/03 01:05:52;;;;;;;14.70;6.03;;;;;;;;;;5044621;28;20049;-66
2021/11/03 01:08:19;;;;;;;10.05;4.78;;;;;;;;;;5044790;28;20495;-65
2021/11/03 01:10:47;;;;;;;8.73;5.35;;;;;;;;;;5045124;28;20052;-66
2021/11/03 01:13:14;;;;;;;9.73;6.00;;;;;;;;;;5046249;28;20115;-66
2021/11/03 01:15:40;;;;;;;8.85;5.25;;;;;;;;;;5047658;28;20044;-66
2021/11/03 01:18:06;;;;;;;9.15;4.90;;;;;;;;;;5048345;28;20080;-66
2021/11/03 01:20:33;;;;;;;8.90;5.75;;;;;;;;;;5046393;28;20076;-66
2021/11/03 01:22:59;;;;;;;8.43;5.65;;;;;;;;;;5045204;28;20489;-66
2021/11/03 01:25:26;;;;;;;9.82;5.78;;;;;;;;;;5045574;28;20040;-66
2021/11/03 01:27:53;;;;;;;10.10;5.78;;;;;;;;;;5046295;28;20057;-66
2021/11/03 01:30:20;;;;;;;10.38;6.40;;;;;;;;;;5048570;28;20037;-66
2021/11/03 01:32:47;;;;;;;11.52;6.03;;;;;;;;;;5071066;28;20098;-66
2021/11/03 01:35:13;;;;;;;8.95;5.07;;;;;;;;;;5047672;28;20037;-66
2021/11/03 01:37:40;;;;;;;9.73;5.20;;;;;;;;;;5033627;28;20087;-66
2021/11/03 01:40:07;;;;;;;9.15;4.97;;;;;;;;;;5048532;28;20049;-66
2021/11/03 01:42:34;;;;;;;7.95;5.07;;;;;;;;;;5046317;28;20133;-66
2021/11/03 01:45:00;;;;;;;7.03;5.18;;;;;;;;;;5047649;28;20120;-66
2021/11/03 01:47:40;;;;;;;6.75;4.72;;;;;;;;;;5050217;28;20044;-66
2021/11/03 01:50:07;;;;;;;6.95;4.53;;;;;;;;;;5039950;28;20037;-66
2021/11/03 01:52:34;;;;;;;6.53;4.15;;;;;;;;;;5047012;28;20550;-66
2021/11/03 01:55:00;;;;;;;7.13;4.28;;;;;;;;;;5047539;28;20070;-66
2021/11/03 01:57:30;;;;;;;7.20;4.32;;;;;;;;;;5044277;28;20075;-66
2021/11/03 01:59:58;;;;;;;6.03;4.43;;;;;;;;;;5042617;28;20075;-66
2021/11/03 02:02:26;;;;;;;7.70;4.10;;;;;;;;;;5036665;28;20944;-66
2021/11/03 02:04:52;;;;;;;6.32;3.95;;;;;;;;;;5044232;28;20477;-66
2021/11/03 02:07:19;;;;;;;8.02;4.10;;;;;;;;;;5046981;28;20056;-66
2021/11/03 02:09:46;;;;;;;6.45;3.55;;;;;;;;;;5044115;28;20047;-66
2021/11/03 02:12:17;;;;;;;6.97;4.05;;;;;;;;;;5035397;28;20132;-66
2021/11/03 02:14:43;;;;;;;6.72;3.88;;;;;;;;;;5044486;28;20384;-66
2021/11/03 02:17:10;;;;;;;8.55;4.15;;;;;;;;;;5038515;28;20531;-66
2021/11/03 02:19:36;;;;;;;8.05;3.78;;;;;;;;;;5037705;28;20052;-66
2021/11/03 02:22:11;;;;;;;5.43;3.85;;;;;;;;;;5048071;28;20041;-66
2021/11/03 02:24:41;;;;;;;7.13;3.15;;;;;;;;;;5049845;28;20040;-66
2021/11/03 02:27:08;;;;;;;5.32;3.40;;;;;;;;;;5061652;28;20361;-66
2021/11/03 02:29:34;;;;;;;7.70;3.10;;;;;;;;;;5046178;28;20044;-66
2021/11/03 02:32:12;;;;;;;3.95;2.70;;;;;;;;;;5048986;28;20123;-65
2021/11/03 02:34:38;;;;;;;7.45;3.00;;;;;;;;;;5044550;28;20094;-66
2021/11/03 02:37:24;;;;;;;5.65;3.35;;;;;;;;;;5047939;28;20449;-66
2021/11/03 02:39:54;;;;;;;5.55;3.45;;;;;;;;;;5051601;28;20040;-66
2021/11/03 02:42:20;;;;;;;9.32;3.10;;;;;;;;;;5048803;28;20036;-66
2021/11/03 02:44:47;;;;;;;5.22;3.53;;;;;;;;;;5047488;28;20071;-66
2021/11/03 02:50:36;;;;;;;8.38;3.70;;;;;;;;;;5047050;28;20043;-66
2021/11/03 02:53:02;;;;;;;6.75;3.15;;;;;;;;;;5048361;28;20171;-66
2021/11/03 02:55:29;;;;;;;7.50;3.63;;;;;;;;;;5077013;28;20053;-66
2021/11/03 02:57:55;;;;;;;6.45;3.80;;;;;;;;;;5046621;28;20049;-65
2021/11/03 03:00:22;;;;;;;7.22;3.55;;;;;;;;;;5046855;28;20172;-66
2021/11/03 03:02:49;;;;;;;8.77;4.35;;;;;;;;;;5047717;28;20459;-66
2021/11/03 03:05:15;;;;;;;7.50;4.53;;;;;;;;;;5049089;28;20045;-66
2021/11/03 03:07:42;;;;;;;8.95;4.70;;;;;;;;;;5049713;28;20049;-66
2021/11/03 03:10:08;;;;;;;11.77;5.53;;;;;;;;;;5050978;28;20057;-66
2021/11/03 03:12:34;;;;;;;14.25;5.35;;;;;;;;;;5054795;28;20043;-66
2021/11/03 03:15:00;;;;;;;17.60;4.32;;;;;;;;;;5046214;28;20399;-66
2021/11/03 03:17:27;;;;;;;5.82;4.25;;;;;;;;;;5047644;28;20045;-66
2021/11/03 03:19:54;;;;;;;8.15;4.38;;;;;;;;;;5049416;28;20114;-66
2021/11/03 03:22:20;;;;;;;8.20;4.80;;;;;;;;;;5048931;28;20110;-66
2021/11/03 03:24:47;;;;;;;8.45;5.05;;;;;;;;;;5037274;28;20076;-65
2021/11/03 03:27:13;;;;;;;10.25;4.18;;;;;;;;;;5044075;28;20128;-66
2021/11/03 03:29:40;;;;;;;7.68;4.82;;;;;;;;;;5042044;28;20099;-66
2021/11/03 03:32:07;;;;;;;7.60;4.53;;;;;;;;;;5071425;28;20128;-66
2021/11/03 03:34:33;;;;;;;11.98;4.43;;;;;;;;;;5045298;28;20501;-66
2021/11/03 03:36:59;;;;;;;29.27;6.90;;;;;;;;;;5042823;28;20440;-66
2021/11/03 03:39:26;;;;;;;12.38;5.30;;;;;;;;;;5048287;28;20102;-66
2021/11/03 03:41:54;;;;;;;19.75;6.32;;;;;;;;;;5049792;28;20373;-66
2021/11/03 03:44:21;;;;;;;53.42;6.93;;;;;;;;;;5047856;28;20142;-66
2021/11/03 03:46:47;;;;;;;67.60;6.97;;;;;;;;;;5046264;28;20135;-65
2021/11/03 03:49:13;;;;;;;262.55;16.17;;;;;;;;;;5044226;28;20492;-66
2021/11/03 03:51:39;;;;;;;235.50;12.80;;;;;;;;;;5045410;28;20037;-66
2021/11/03 03:54:06;;;;;;;215.63;8.23;;;;;;;;;;5049093;28;20125;-66
2021/11/03 03:56:32;;;;;;;197.35;7.60;;;;;;;;;;5050556;28;20032;-66
2021/11/03 03:58:58;;;;;;;222.13;7.80;;;;;;;;;;5049506;28;20041;-65
2021/11/03 04:01:26;;;;;;;195.65;7.78;;;;;;;;;;5073409;28;20102;-66
2021/11/03 04:03:52;;;;;;;221.05;6.90;;;;;;;;;;5049568;28;20041;-66
2021/11/03 04:06:19;;;;;;;231.30;7.60;;;;;;;;;;5062469;28;20133;-66
2021/11/03 04:08:45;;;;;;;291.98;10.07;;;;;;;;;;5047500;28;20055;-66
2021/11/03 04:11:11;;;;;;;256.63;8.68;;;;;;;;;;5053798;28;20048;-65
2021/11/03 04:13:37;;;;;;;344.20;10.73;;;;;;;;;;5045793;28;20040;-66
2021/11/03 04:16:04;;;;;;;216.18;6.88;;;;;;;;;;5048638;28;22013;-65
2021/11/03 04:18:30;;;;;;;145.35;4.97;;;;;;;;;;5053722;28;20048;-66
2021/11/03 04:20:56;;;;;;;183.40;6.07;;;;;;;;;;5051829;28;20131;-66
2021/11/03 04:23:22;;;;;;;67.72;3.25;;;;;;;;;;5056440;28;20056;-66
2021/11/03 04:25:49;;;;;;;117.22;5.10;;;;;;;;;;5058734;28;21393;-65
2021/11/03 04:28:15;;;;;;;189.27;10.65;;;;;;;;;;5049971;28;20067;-66
2021/11/03 04:30:42;;;;;;;300.67;11.73;;;;;;;;;;5051222;28;20531;-66
2021/11/03 04:33:08;;;;;;;462.52;17.90;;;;;;;;;;5049852;28;20060;-66
2021/11/03 04:35:34;;;;;;;290.85;10.93;;;;;;;;;;5074274;28;20041;-65
2021/11/03 04:38:01;;;;;;;385.88;14.35;;;;;;;;;;5049907;28;20041;-66
2021/11/03 04:40:28;;;;;;;263.45;9.48;;;;;;;;;;5033988;28;20103;-66
2021/11/03 04:42:55;;;;;;;188.25;7.57;;;;;;;;;;5044847;28;20047;-65
2021/11/03 04:45:21;;;;;;;146.23;5.63;;;;;;;;;;5045776;28;20046;-66
2021/11/03 04:47:48;;;;;;;136.77;6.50;;;;;;;;;;5063588;28;20071;-66
2021/11/03 04:50:16;;;;;;;180.95;6.55;;;;;;;;;;5047661;28;20048;-66
2021/11/03 04:52:42;;;;;;;147.43;6.07;;;;;;;;;;5046139;28;20076;-65
2021/11/03 04:55:09;;;;;;;104.38;5.88;;;;;;;;;;5049015;28;20037;-66
2021/11/03 04:57:35;;;;;;;236.80;8.90;;;;;;;;;;5057994;28;20051;-65
2021/11/03 05:00:04;;;;;;;111.63;5.90;;;;;;;;;;5046820;28;20553;-65
2021/11/03 05:02:30;;;;;;;108.78;5.57;;;;;;;;;;5045103;28;20089;-66
2021/11/03 05:04:57;;;;;;;149.82;6.57;;;;;;;;;;5047744;28;20145;-66
2021/11/03 05:07:23;;;;;;;175.82;7.32;;;;;;;;;;5043191;28;20117;-65
2021/11/03 05:09:49;;;;;;;231.25;9.38;;;;;;;;;;5049643;28;20094;-66
2021/11/03 05:12:15;;;;;;;306.50;12.43;;;;;;;;;;5047904;28;20444;-66
2021/11/03 05:14:42;;;;;;;322.30;12.48;;;;;;;;;;5073757;28;20388;-66
2021/11/03 05:17:08;;;;;;;297.52;11.15;;;;;;;;;;5050175;28;20116;-66
2021/11/03 05:19:34;;;;;;;168.35;9.40;;;;;;;;;;5061114;28;20552;-65
2021/11/03 05:22:00;;;;;;;275.10;12.02;;;;;;;;;;5053043;28;20385;-65
2021/11/03 05:24:27;;;;;;;206.38;11.68;;;;;;;;;;5038983;28;20041;-66
2021/11/03 05:26:54;;;;;;;252.68;10.98;;;;;;;;;;5047616;28;20049;-66
2021/11/03 05:29:21;;;;;;;254.57;12.18;;;;;;;;;;5045747;28;20394;-66
2021/11/03 05:31:47;;;;;;;270.20;13.05;;;;;;;;;;5049375;28;20067;-66
2021/11/03 05:34:13;;;;;;;319.85;13.43;;;;;;;;;;5044398;28;20092;-66
2021/11/03 05:36:40;;;;;;;304.58;11.32;;;;;;;;;;5050077;28;20079;-65
2021/11/03 05:39:07;;;;;;;338.65;15.40;;;;;;;;;;5040589;28;20052;-66
2021/11/03 05:41:38;;;;;;;288.15;13.63;;;;;;;;;;5049844;28;20052;-65
2021/11/03 05:44:05;;;;;;;384.77;15.10;;;;;;;;;;5044868;28;20045;-66
2021/11/03 05:46:33;;;;;;;330.90;14.48;;;;;;;;;;5045790;28;20395;-66
2021/11/03 05:49:01;;;;;;;274.10;14.18;;;;;;;;;;5047060;28;20371;-66
2021/11/03 05:51:27;;;;;;;127.38;9.20;;;;;;;;;;5049519;28;20099;-65
2021/11/03 05:53:54;;;;;;;62.97;8.65;;;;;;;;;;5049911;28;20136;-66
2021/11/03 05:56:20;;;;;;;35.10;8.45;;;;;;;;;;5046871;28;20040;-65
2021/11/03 05:58:46;;;;;;;42.83;7.65;;;;;;;;;;5045563;28;20048;-66
2021/11/03 06:01:12;;;;;;;37.80;7.80;;;;;;;;;;5044415;28;20180;-65
2021/11/03 06:03:38;;;;;;;17.10;7.85;;;;;;;;;;5037139;28;20041;-65
2021/11/03 06:06:04;;;;;;;65.40;9.40;;;;;;;;;;5033993;28;20042;-65
2021/11/03 06:08:31;;;;;;;93.40;9.70;;;;;;;;;;5041422;28;20049;-65
2021/11/03 06:10:57;;;;;;;76.40;9.00;;;;;;;;;;5043964;28;20045;-66
2021/11/03 06:13:24;;;;;;;62.08;8.52;;;;;;;;;;5045080;28;20033;-65
2021/11/03 06:15:50;;;;;;;23.95;7.85;;;;;;;;;;5046948;28;20040;-66
2021/11/03 06:18:16;;;;;;;27.45;8.82;;;;;;;;;;5046799;28;20429;-65
2021/11/03 06:20:42;;;;;;;40.90;8.63;;;;;;;;;;5052152;28;20039;-65
2021/11/03 06:23:08;;;;;;;19.67;10.15;;;;;;;;;;5045553;28;20098;-65
2021/11/03 06:25:35;;;;;;;20.98;10.90;;;;;;;;;;5047349;28;20080;-65
2021/11/03 06:28:01;;;;;;;26.70;11.98;;;;;;;;;;5047075;28;20056;-65
2021/11/03 06:30:29;;;;;;;20.52;11.70;;;;;;;;;;5046627;28;20075;-65
2021/11/03 06:32:55;;;;;;;24.63;12.50;;;;;;;;;;5044593;28;20052;-65
2021/11/03 06:35:22;;;;;;;21.33;11.77;;;;;;;;;;5044645;28;20056;-66
2021/11/03 06:37:49;;;;;;;19.98;11.82;;;;;;;;;;5040463;28;20156;-66
2021/11/03 06:40:16;;;;;;;21.52;12.50;;;;;;;;;;5050414;28;20128;-64
2021/11/03 06:42:43;;;;;;;21.38;13.07;;;;;;;;;;5048290;28;20076;-64
2021/11/03 06:45:10;;;;;;;29.35;14.77;;;;;;;;;;5049083;28;20045;-64
2021/11/03 06:47:36;;;;;;;31.33;16.73;;;;;;;;;;5047428;28;20045;-64
2021/11/03 06:50:03;;;;;;;34.88;19.00;;;;;;;;;;5045463;28;20173;-64
2021/11/03 06:52:31;;;;;;;47.53;22.65;;;;;;;;;;5070414;28;20049;-64
2021/11/03 06:54:57;;;;;;;52.70;25.15;;;;;;;;;;5074525;28;20073;-64
2021/11/03 06:57:23;;;;;;;54.42;27.23;;;;;;;;;;5043510;28;20033;-64
2021/11/03 06:59:49;;;;;;;55.97;26.95;;;;;;;;;;5042296;28;20049;-64
2021/11/03 07:02:16;;;;;;;51.40;26.25;;;;;;;;;;5045588;28;20120;-64
2021/11/03 07:04:43;;;;;;;56.08;26.75;;;;;;;;;;5045913;28;20062;-64
2021/11/03 07:07:09;;;;;;;47.97;25.25;;;;;;;;;;5069947;28;20577;-65
2021/11/03 07:09:36;;;;;;;49.08;27.08;;;;;;;;;;5050842;28;20480;-65
2021/11/03 07:12:02;;;;;;;51.83;26.42;;;;;;;;;;5046767;28;20076;-65
2021/11/03 07:14:28;;;;;;;47.92;26.38;;;;;;;;;;5059076;28;20036;-65
2021/11/03 07:16:54;;;;;;;53.42;26.42;;;;;;;;;;5046766;28;20110;-65
2021/11/03 07:19:21;;;;;;;53.42;27.50;;;;;;;;;;5054779;28;20445;-65
2021/11/03 07:21:47;;;;;;;51.50;27.10;;;;;;;;;;5048587;28;20048;-65
2021/11/03 07:24:13;;;;;;;56.63;29.40;;;;;;;;;;5048959;28;20072;-65
2021/11/03 07:26:40;;;;;;;64.15;30.33;;;;;;;;;;5057916;28;20124;-65
2021/11/03 07:29:06;;;;;;;61.28;31.60;;;;;;;;;;5056918;28;20055;-65
2021/11/03 07:31:33;;;;;;;55.35;29.10;;;;;;;;;;5049472;28;20041;-65
2021/11/03 07:33:59;;;;;;;59.63;31.67;;;;;;;;;;5047301;28;20076;-65
2021/11/03 07:36:25;;;;;;;75.70;34.20;;;;;;;;;;5044505;28;20076;-67
2021/11/03 07:38:51;;;;;;;85.05;38.88;;;;;;;;;;5076099;28;20048;-65
2021/11/03 07:41:17;;;;;;;83.88;39.17;;;;;;;;;;5051476;28;20049;-64
2021/11/03 07:43:45;;;;;;;93.32;43.15;;;;;;;;;;5047941;28;20072;-65
2021/11/03 07:46:11;;;;;;;92.18;42.83;;;;;;;;;;5047771;28;20064;-64
2021/11/03 07:48:37;;;;;;;91.72;43.30;;;;;;;;;;5042417;28;20121;-65
2021/11/03 07:51:05;;;;;;;98.25;43.10;;;;;;;;;;5055904;28;20057;-65
2021/11/03 07:53:32;;;;;;;107.25;45.40;;;;;;;;;;5045648;28;20028;-65
2021/11/03 07:56:00;;;;;;;107.25;44.60;;;;;;;;;;5053751;28;20048;-65
2021/11/03 07:58:28;;;;;;;100.32;44.65;;;;;;;;;;5046874;28;20029;-64
2021/11/03 08:00:55;;;;;;;98.00;42.47;;;;;;;;;;5050261;28;20496;-65
2021/11/03 08:03:22;;;;;;;100.15;42.75;;;;;;;;;;5050674;28;20052;-65
2021/11/03 08:05:51;;;;;;;99.82;41.85;;;;;;;;;;5043037;28;20202;-65
2021/11/03 08:08:19;;;;;;;122.38;45.70;;;;;;;;;;5033433;28;20057;-65
2021/11/03 08:10:46;;;;;;;122.13;45.45;;;;;;;;;;5038270;28;20070;-65
2021/11/03 08:13:16;;;;;;;139.98;48.42;;;;;;;;;;5045967;28;20048;-65
2021/11/03 08:15:44;;;;;;;142.07;49.05;;;;;;;;;;5051581;28;20098;-65
2021/11/03 08:18:11;;;;;;;171.52;50.67;;;;;;;;;;5052235;28;20051;-65
2021/11/03 08:20:37;;;;;;;155.50;49.63;;;;;;;;;;5051637;28;20041;-65
2021/11/03 08:23:04;;;;;;;143.05;49.05;;;;;;;;;;5051979;28;20041;-65
2021/11/03 08:25:30;;;;;;;169.57;55.08;;;;;;;;;;5050257;28;20049;-64
2021/11/03 08:27:56;;;;;;;175.23;51.80;;;;;;;;;;5043321;28;20481;-65
2021/11/03 08:30:22;;;;;;;161.77;52.35;;;;;;;;;;5049199;28;20551;-64
2021/11/03 08:32:51;;;;;;;143.75;49.90;;;;;;;;;;5048679;28;20049;-64
2021/11/03 08:35:19;;;;;;;154.77;51.95;;;;;;;;;;5049681;28;20045;-64
2021/11/03 08:37:47;;;;;;;194.98;52.85;;;;;;;;;;5049767;28;20555;-64
2021/11/03 08:40:15;;;;;;;220.00;54.13;;;;;;;;;;5051733;28;20136;-65
2021/11/03 08:42:41;;;;;;;393.90;54.63;;;;;;;;;;5051171;28;20033;-64
2021/11/03 08:45:08;;;;;;;370.70;55.38;;;;;;;;;;5051964;28;20461;-64
2021/11/03 08:47:35;;;;;;;303.38;48.28;;;;;;;;;;5050451;28;20053;-64
2021/11/03 08:50:01;;;;;;;303.05;50.47;;;;;;;;;;5049458;28;20472;-65
2021/11/03 08:52:28;;;;;;;290.95;52.78;;;;;;;;;;5051857;28;20049;-65
2021/11/03 08:54:54;;;;;;;411.17;54.72;;;;;;;;;;5050874;28;20068;-65
2021/11/03 08:57:20;;;;;;;368.20;53.40;;;;;;;;;;5049864;28;20041;-65
2021/11/03 08:59:48;;;;;;;374.55;57.17;;;;;;;;;;5050594;28;20051;-65
2021/11/03 09:02:14;;;;;;;402.33;63.05;;;;;;;;;;5046520;28;20099;-65
2021/11/03 09:04:41;;;;;;;443.10;61.10;;;;;;;;;;5045436;28;20075;-65
2021/11/03 09:07:11;;;;;;;428.15;63.88;;;;;;;;;;5046955;28;20061;-65
2021/11/03 09:09:38;;;;;;;491.15;63.83;;;;;;;;;;5045754;28;20052;-65
2021/11/03 09:12:04;;;;;;;464.48;65.75;;;;;;;;;;5047770;28;20489;-65
2021/11/03 09:14:30;;;;;;;532.70;69.85;;;;;;;;;;5071332;28;20041;-65
2021/11/03 09:16:57;;;;;;;503.27;66.40;;;;;;;;;;5049016;28;20507;-65
2021/11/03 09:19:23;;;;;;;542.10;70.82;;;;;;;;;;5045558;28;20535;-65
2021/11/03 09:21:50;;;;;;;461.58;65.43;;;;;;;;;;5043110;28;20132;-65
2021/11/03 09:24:16;;;;;;;419.88;63.22;;;;;;;;;;5039765;28;20059;-65
2021/11/03 09:26:43;;;;;;;402.48;59.97;;;;;;;;;;5041671;28;20059;-72
2021/11/03 09:29:10;;;;;;;437.75;62.80;;;;;;;;;;5068550;28;20060;-65
2021/11/03 09:31:37;;;;;;;472.73;62.10;;;;;;;;;;5041693;28;20171;-65
2021/11/03 09:34:03;;;;;;;488.70;64.53;;;;;;;;;;5044563;28;20049;-65
2021/11/03 09:36:29;;;;;;;409.95;58.55;;;;;;;;;;5042821;28;20052;-65
2021/11/03 09:38:56;;;;;;;340.90;56.75;;;;;;;;;;5043793;28;20123;-65
2021/11/03 09:41:26;;;;;;;448.25;62.47;;;;;;;;;;5047179;28;20161;-64
2021/11/03 09:43:53;;;;;;;479.42;63.58;;;;;;;;;;5039064;28;20131;-64
2021/11/03 09:46:19;;;;;;;466.30;63.35;;;;;;;;;;5070051;28;20049;-65
2021/11/03 09:48:46;;;;;;;451.13;64.97;;;;;;;;;;5043847;28;20052;-65
2021/11/03 09:51:16;;;;;;;451.77;67.05;;;;;;;;;;5045679;28;20554;-65
2021/11/03 09:53:47;;;;;;;389.33;65.40;;;;;;;;;;5045737;28;20041;-65
2021/11/03 09:56:15;;;;;;;425.38;65.63;;;;;;;;;;5042495;28;20041;-64
2021/11/03 09:58:50;;;;;;;438.63;68.22;;;;;;;;;;5041071;28;20416;-65
2021/11/03 10:01:21;;;;;;;217.48;55.38;;;;;;;;;;5040471;28;20067;-65
2021/11/03 10:04:00;;;;;;;323.48;60.30;;;;;;;;;;5043277;28;20053;-65
2021/11/03 10:06:32;;;;;;;364.05;67.07;;;;;;;;;;5041465;28;20668;-65
2021/11/03 10:08:59;;;;;;;368.63;65.38;;;;;;;;;;5041480;28;20045;-64
2021/11/03 10:11:27;;;;;;;300.98;61.65;;;;;;;;;;5041153;28;20445;-65
2021/11/03 10:13:54;;;;;;;139.68;50.20;;;;;;;;;;5041955;28;20041;-65
2021/11/03 10:16:20;;;;;;;151.25;49.40;;;;;;;;;;5044981;28;20505;-65
2021/11/03 10:19:01;;;;;;;160.85;50.97;;;;;;;;;;5047049;28;20565;-65
2021/11/03 10:21:35;;;;;;;144.95;50.15;;;;;;;;;;5046114;28;20057;-65
2021/11/03 10:24:06;;;;;;;192.20;53.97;;;;;;;;;;5048322;28;21321;-65
2021/11/03 10:26:47;;;;;;;182.68;53.38;;;;;;;;;;5046658;28;20423;-65
2021/11/03 10:29:13;;;;;;;216.13;57.25;;;;;;;;;;5042591;28;20130;-65
2021/11/03 10:31:42;;;;;;;201.60;58.72;;;;;;;;;;5045068;28;20055;-65
2021/11/03 10:34:19;;;;;;;166.05;49.63;;;;;;;;;;5042975;28;20106;-65
2021/11/03 10:36:48;;;;;;;160.13;52.03;;;;;;;;;;5047204;28;20083;-65
2021/11/03 10:39:19;;;;;;;164.98;54.85;;;;;;;;;;5048212;28;20507;-65
2021/11/03 10:41:54;;;;;;;135.60;50.10;;;;;;;;;;5044439;28;20198;-65
2021/11/03 10:44:22;;;;;;;124.70;47.90;;;;;;;;;;5045248;28;21432;-74
2021/11/03 10:46:54;;;;;;;138.10;50.47;;;;;;;;;;5073422;28;20360;-65
2021/11/03 10:49:33;;;;;;;110.55;45.58;;;;;;;;;;5045794;28;20167;-65
2021/11/03 10:52:02;;;;;;;81.25;38.75;;;;;;;;;;5045080;28;20044;-65
2021/11/03 10:54:38;;;;;;;96.95;44.83;;;;;;;;;;5046245;28;20496;-65
2021/11/03 10:57:18;;;;;;;66.18;36.20;;;;;;;;;;5047417;28;20044;-65
2021/11/03 10:59:50;;;;;;;68.57;34.40;;;;;;;;;;5048847;28;20044;-65
2021/11/03 11:02:22;;;;;;;60.13;34.00;;;;;;;;;;5048324;28;20132;-65
2021/11/03 11:04:49;;;;;;;88.63;39.00;;;;;;;;;;5050703;28;20119;-65
2021/11/03 11:07:24;;;;;;;69.32;35.80;;;;;;;;;;5044686;28;20049;-65
2021/11/03 11:09:57;;;;;;;61.70;33.40;;;;;;;;;;5073661;28;20705;-65
2021/11/03 11:12:26;;;;;;;66.75;34.10;;;;;;;;;;5054019;28;20048;-65
2021/11/03 11:14:54;;;;;;;70.68;36.10;;;;;;;;;;5057731;28;20127;-65
2021/11/03 11:17:24;;;;;;;65.65;35.75;;;;;;;;;;5049873;28;20175;-65
2021/11/03 11:20:00;;;;;;;63.72;33.72;;;;;;;;;;5050958;28;20040;-65
2021/11/03 11:22:35;;;;;;;57.53;32.20;;;;;;;;;;5050210;28;20147;-65
2021/11/03 11:25:05;;;;;;;63.85;33.88;;;;;;;;;;5050274;28;20040;-65
2021/11/03 11:27:36;;;;;;;60.60;34.50;;;;;;;;;;5047062;28;20053;-65
2021/11/03 11:30:02;;;;;;;47.38;28.38;;;;;;;;;;5052811;28;20056;-64
2021/11/03 11:32:38;;;;;;;49.85;30.30;;;;;;;;;;5046894;28;20142;-65
2021/11/03 11:35:11;;;;;;;43.08;27.88;;;;;;;;;;5045866;28;20040;-65
2021/11/03 11:37:44;;;;;;;52.63;31.90;;;;;;;;;;5047992;28;20126;-65
2021/11/03 11:40:22;;;;;;;47.33;29.90;;;;;;;;;;5052550;28;20037;-65
2021/11/03 11:42:59;;;;;;;42.47;27.73;;;;;;;;;;5053175;28;20434;-66
2021/11/03 11:45:27;;;;;;;51.53;31.80;;;;;;;;;;5052536;28;20057;-65
2021/11/03 11:47:56;;;;;;;45.65;30.42;;;;;;;;;;5052855;28;20068;-65
2021/11/03 11:50:29;;;;;;;40.90;27.63;;;;;;;;;;5052576;28;20427;-65
2021/11/03 11:52:59;;;;;;;42.30;26.45;;;;;;;;;;5051884;28;20049;-65
2021/11/03 11:55:27;;;;;;;50.03;31.80;;;;;;;;;;5052863;28;20041;-65
2021/11/03 11:57:59;;;;;;;48.15;29.75;;;;;;;;;;5051158;28;20052;-65
2021/11/03 12:00:26;;;;;;;38.85;26.42;;;;;;;;;;5052117;28;20493;-65
2021/11/03 12:02:53;;;;;;;33.05;22.20;;;;;;;;;;5051865;28;20056;-65
2021/11/03 12:05:27;;;;;;;35.00;23.63;;;;;;;;;;5051185;28;20057;-65
2021/11/03 12:08:09;;;;;;;42.38;26.75;;;;;;;;;;5050549;28;20049;-65
2021/11/03 12:10:37;;;;;;;35.63;23.98;;;;;;;;;;5052297;28;20044;-65
2021/11/03 12:13:04;;;;;;;29.17;20.95;;;;;;;;;;5051206;28;20041;-65
2021/11/03 12:15:58;;;;;;;30.08;22.63;;;;;;;;;;5052538;28;20041;-65
2021/11/03 12:18:25;;;;;;;27.67;20.33;;;;;;;;;;5083316;28;20041;-66
2021/11/03 12:21:08;;;;;;;25.25;19.33;;;;;;;;;;5052049;28;20451;-66
2021/11/03 12:23:43;;;;;;;24.70;18.73;;;;;;;;;;5050484;28;20041;-63
2021/11/03 12:26:33;;;;;;;22.92;18.40;;;;;;;;;;5050518;28;20411;-63
2021/11/03 12:29:15;;;;;;;20.85;16.70;;;;;;;;;;5051659;28;20033;-64
2021/11/03 12:31:49;;;;;;;21.00;16.10;;;;;;;;;;5051952;28;20060;-64
2021/11/03 12:34:26;;;;;;;19.83;16.15;;;;;;;;;;5051423;28;20059;-68
2021/11/03 12:36:55;;;;;;;20.45;15.40;;;;;;;;;;5048668;28;20045;-64
2021/11/03 12:39:27;;;;;;;18.00;14.32;;;;;;;;;;5051117;28;20077;-64
2021/11/03 12:41:54;;;;;;;19.88;15.38;;;;;;;;;;5051385;28;20052;-66
2021/11/03 12:44:30;;;;;;;19.38;15.93;;;;;;;;;;5051392;28;20393;-65
2021/11/03 12:46:56;;;;;;;24.13;16.40;;;;;;;;;;5051367;28;20392;-65
2021/11/03 12:49:25;;;;;;;22.30;17.20;;;;;;;;;;5049292;28;20040;-66
2021/11/03 12:51:53;;;;;;;21.45;17.20;;;;;;;;;;5051320;28;20045;-66
2021/11/03 12:54:21;;;;;;;23.58;18.30;;;;;;;;;;5049414;28;20033;-66
2021/11/03 12:57:02;;;;;;;21.95;16.85;;;;;;;;;;5050385;28;20045;-66
2021/11/03 12:59:30;;;;;;;25.80;17.27;;;;;;;;;;5049807;28;20051;-66
2021/11/03 13:01:58;;;;;;;25.80;18.58;;;;;;;;;;5045840;28;20087;-66
2021/11/03 13:04:31;;;;;;;23.95;17.38;;;;;;;;;;5049371;28;20056;-66
2021/11/03 13:06:59;;;;;;;26.05;19.75;;;;;;;;;;5049341;28;20064;-66
2021/11/03 13:09:26;;;;;;;26.13;19.73;;;;;;;;;;5049159;28;20088;-66
2021/11/03 13:11:53;;;;;;;22.10;18.15;;;;;;;;;;5050832;28;20059;-66
2021/11/03 13:14:22;;;;;;;24.52;19.42;;;;;;;;;;5050753;28;20041;-66
2021/11/03 13:16:49;;;;;;;23.60;18.38;;;;;;;;;;5050365;28;20507;-65
2021/11/03 13:19:18;;;;;;;24.30;17.98;;;;;;;;;;5050898;28;20067;-65
2021/11/03 13:21:45;;;;;;;26.15;20.13;;;;;;;;;;5050191;28;20041;-64
2021/11/03 13:24:20;;;;;;;32.00;20.83;;;;;;;;;;5050631;28;20040;-65
2021/11/03 13:26:47;;;;;;;29.55;20.90;;;;;;;;;;5050883;28;20045;-65
2021/11/03 13:29:22;;;;;;;30.85;21.65;;;;;;;;;;5049267;28;20374;-65
2021/11/03 13:32:04;;;;;;;30.45;20.63;;;;;;;;;;5077806;28;20570;-65
2021/11/03 13:34:42;;;;;;;31.63;22.10;;;;;;;;;;5049727;28;20045;-65
2021/11/03 13:37:17;;;;;;;26.23;19.83;;;;;;;;;;5050442;28;20037;-65
2021/11/03 13:40:02;;;;;;;27.50;19.98;;;;;;;;;;5049558;28;20048;-65
2021/11/03 13:42:28;;;;;;;28.13;21.23;;;;;;;;;;5050599;28;20120;-65
2021/11/03 13:45:00;;;;;;;28.38;20.33;;;;;;;;;;5048825;28;20049;-65
2021/11/03 13:47:29;;;;;;;32.70;22.05;;;;;;;;;;5049251;28;20041;-65
2021/11/03 13:50:14;;;;;;;34.70;23.27;;;;;;;;;;5032413;28;20045;-65
2021/11/03 13:52:51;;;;;;;32.33;22.48;;;;;;;;;;5049972;28;20119;-65
2021/11/03 13:55:17;;;;;;;35.55;22.40;;;;;;;;;;5050614;28;20036;-65
2021/11/03 13:57:44;;;;;;;29.77;21.30;;;;;;;;;;5050378;28;20059;-65
2021/11/03 14:00:18;;;;;;;37.45;23.42;;;;;;;;;;5050164;28;20447;-65
2021/11/03 14:02:45;;;;;;;38.10;23.58;;;;;;;;;;5048775;28;20045;-72
2021/11/03 14:05:28;;;;;;;37.88;23.52;;;;;;;;;;5049308;28;20045;-87
2021/11/03 14:07:54;;;;;;;38.77;24.80;;;;;;;;;;5050493;28;20049;-78
2021/11/03 14:10:21;;;;;;;37.95;24.33;;;;;;;;;;5049114;28;20056;-79
2021/11/03 14:12:47;;;;;;;35.70;22.98;;;;;;;;;;5049052;28;20057;-73
2021/11/03 14:15:17;;;;;;;39.30;23.98;;;;;;;;;;5049021;28;20041;-76
2021/11/03 14:17:46;;;;;;;42.22;25.42;;;;;;;;;;5049439;28;20051;-77
2021/11/03 14:20:31;;;;;;;39.53;25.00;;;;;;;;;;5031223;28;20393;-69
2021/11/03 14:22:57;;;;;;;40.42;25.20;;;;;;;;;;5063531;28;20045;-72
2021/11/03 14:25:25;;;;;;;42.78;25.65;;;;;;;;;;5050050;28;20112;-70
2021/11/03 14:27:52;;;;;;;42.10;24.88;;;;;;;;;;5049939;28;20119;-70